.
WxDataArchive / Data Records for 2010-08-21
2010-08-20 August 2010 2010-08-22

Data Records for Saturday, 21 August 2010

Time	Temp	Chill	HIndex	Humid	Dewpt	 Wind 	HiWind	WindDir	Rain 	Barom 
-----	----	-----	------	-----	-----	------	------	-------	-----	----- 
00:00	76.8	76.8	78.6	68	65.4	1	3	112	0.00	29.815 
00:05	76.7	76.7	78.5	68	65.3	1	3	112	0.00	29.815 
00:10	76.7	76.7	78.5	68	65.3	1	4	112	0.00	29.815 
00:15	76.7	76.7	78.5	68	65.3	0	6	90	0.00	29.815 
00:20	76.7	76.7	78.5	68	65.3	0	1	90	0.00	29.815 
00:25	76.5	76.5	78.3	68	65.1	0	1	90	0.00	29.815 
00:30	76.5	76.5	78.3	67	64.7	0	3	90	0.00	29.817 
00:35	76.5	76.5	78.3	67	64.7	0	4	90	0.00	29.817 
00:40	76.7	76.7	78.5	66	64.5	0	1	112	0.00	29.817 
00:45	76.7	76.7	78.5	66	64.5	0	1	112	0.00	29.823 
00:50	76.8	76.8	78.6	65	64.1	0	1	90	0.00	29.823 
00:55	76.8	76.8	78.6	65	64.1	0	2	90	0.00	29.823 
01:00	77.0	77.0	78.8	65	64.3	0	0	---	0.00	29.820 
01:05	77.0	77.0	78.8	65	64.3	0	2	292	0.00	29.820 
01:10	77.0	77.0	78.8	65	64.3	0	2	292	0.00	29.820 
01:15	76.8	76.8	78.6	66	64.6	0	2	292	0.00	29.822 
01:20	76.8	76.8	78.6	66	64.6	0	2	22	0.00	29.822 
01:25	76.7	76.7	78.5	67	64.9	0	1	22	0.00	29.822 
01:30	76.5	76.5	78.3	67	64.7	0	2	22	0.00	29.815 
01:35	76.3	76.3	78.0	68	64.9	0	2	112	0.00	29.815 
01:40	76.0	76.0	77.7	68	64.7	0	2	112	0.00	29.815 
01:45	75.8	75.8	77.5	69	64.9	1	4	112	0.00	29.805 
01:50	75.8	75.8	77.5	69	64.9	0	2	158	0.00	29.805 
01:55	75.6	75.6	77.3	69	64.7	0	2	158	0.00	29.805 
02:00	75.4	75.4	77.1	70	64.9	0	2	158	0.00	29.801 
02:05	75.1	75.1	76.8	70	64.6	0	1	158	0.00	29.801 
02:10	75.1	75.1	76.7	71	65.0	0	2	158	0.00	29.801 
02:15	74.9	74.9	74.9	71	64.8	0	2	158	0.00	29.792 
02:20	74.9	74.9	74.9	71	64.8	1	3	90	0.00	29.792 
02:25	74.9	74.9	74.9	71	64.8	0	2	90	0.00	29.792 
02:30	74.9	74.9	74.9	71	64.8	1	3	90	0.00	29.784 
02:35	74.9	74.9	74.9	72	65.2	0	2	90	0.00	29.784 
02:40	74.9	74.9	74.9	72	65.2	0	0	---	0.00	29.784 
02:45	74.7	74.7	74.7	72	65.1	0	1	90	0.00	29.792 
02:50	74.7	74.7	74.7	72	65.1	0	1	90	0.00	29.792 
02:55	74.7	74.7	74.7	72	65.1	0	1	90	0.00	29.792 
03:00	74.7	74.7	74.7	72	65.1	0	1	90	0.00	29.787 
03:05	74.7	74.7	74.7	72	65.1	0	1	90	0.00	29.787 
03:10	74.9	74.9	74.9	71	64.8	1	4	112	0.00	29.787 
03:15	75.1	75.1	76.7	71	65.0	1	6	112	0.00	29.778 
03:20	75.3	75.3	76.9	71	65.2	0	2	68	0.00	29.778 
03:25	75.4	75.4	77.0	71	65.3	0	5	90	0.00	29.778 
03:30	75.4	75.4	77.0	71	65.3	0	3	90	0.00	29.781 
03:35	75.4	75.4	77.0	71	65.3	0	2	90	0.00	29.781 
03:40	75.4	75.4	77.0	71	65.3	0	2	90	0.00	29.781 
03:45	75.4	75.4	77.0	71	65.3	0	1	90	0.00	29.780 
03:50	75.3	75.3	76.9	71	65.2	0	2	90	0.00	29.780 
03:55	75.3	75.3	76.9	71	65.2	0	1	90	0.00	29.780 
04:00	75.3	75.3	76.8	72	65.6	0	2	90	0.00	29.778 
04:05	75.1	75.1	76.6	72	65.4	0	2	68	0.00	29.778 
04:10	75.1	75.1	76.6	72	65.4	0	1	68	0.00	29.778 
04:15	75.1	75.1	76.6	72	65.4	0	1	68	0.00	29.779 
04:20	75.1	75.1	76.6	72	65.4	0	2	248	0.00	29.779 
04:25	75.1	75.1	76.6	72	65.4	0	1	248	0.00	29.779 
04:30	75.1	75.1	76.5	73	65.8	0	2	248	0.00	29.781 
04:35	74.9	74.9	74.9	73	65.6	0	2	315	0.00	29.781 
04:40	74.9	74.9	74.9	73	65.6	0	3	248	0.00	29.781 
04:45	74.9	74.9	74.9	73	65.6	0	2	248	0.00	29.787 
04:50	74.9	74.9	74.9	73	65.6	0	3	248	0.00	29.787 
04:55	74.9	74.9	74.9	73	65.6	0	0	---	0.00	29.787 
05:00	74.7	74.7	74.7	73	65.5	0	2	248	0.00	29.780 
05:05	74.7	74.7	74.7	73	65.5	0	2	248	0.00	29.780 
05:10	74.9	74.9	74.9	73	65.6	0	3	315	0.00	29.780 
05:15	74.9	74.9	74.9	73	65.6	0	1	225	0.00	29.779 
05:20	74.9	74.9	74.9	73	65.6	0	1	225	0.00	29.779 
05:25	74.7	74.7	74.7	73	65.5	0	1	225	0.00	29.779 
05:30	74.7	74.7	74.7	73	65.5	0	0	---	0.00	29.777 
05:35	74.7	74.7	74.7	74	65.8	0	1	225	0.00	29.777 
05:40	74.6	74.6	74.6	74	65.7	0	1	225	0.00	29.777 
05:45	74.6	74.6	74.6	74	65.7	0	1	225	0.00	29.776 
05:50	74.6	74.6	74.6	74	65.7	0	1	225	0.00	29.776 
05:55	74.6	74.6	74.6	74	65.7	0	1	225	0.00	29.776 
06:00	74.6	74.6	74.6	75	66.1	0	1	225	0.00	29.775 
06:05	74.4	74.4	74.4	75	65.9	0	0	---	0.00	29.775 
06:10	74.4	74.4	74.4	75	65.9	0	2	225	0.00	29.775 
06:15	74.4	74.4	74.4	76	66.3	0	0	---	0.00	29.778 
06:20	74.2	74.2	74.2	76	66.1	0	1	225	0.00	29.778 
06:25	74.2	74.2	74.2	76	66.1	0	0	---	0.00	29.778 
06:30	74.0	74.0	74.0	77	66.3	0	0	---	0.00	29.782 
06:35	74.0	74.0	74.0	77	66.3	0	0	---	0.00	29.782 
06:40	73.9	73.9	73.9	78	66.6	0	0	---	0.00	29.782 
06:45	73.7	73.7	73.7	78	66.4	0	0	---	0.00	29.788 
06:50	73.7	73.7	73.7	78	66.4	0	0	---	0.00	29.788 
06:55	73.7	73.7	73.7	78	66.4	0	0	---	0.00	29.788 
07:00	73.5	73.5	73.5	79	66.6	0	0	---	0.00	29.795 
07:05	73.5	73.5	73.5	81	67.3	0	0	---	0.00	29.795 
07:10	73.3	73.3	73.3	82	67.5	0	0	---	0.00	29.795 
07:15	73.2	73.2	73.2	83	67.7	0	0	---	0.00	29.802 
07:20	73.0	73.0	73.0	84	67.9	0	0	---	0.00	29.802 
07:25	72.7	72.7	72.7	85	67.9	0	0	---	0.00	29.802 
07:30	72.5	72.5	72.5	86	68.1	0	0	---	0.01	29.798 
07:35	72.3	72.3	72.3	87	68.2	0	0	---	0.00	29.798 
07:40	72.1	72.1	72.1	87	68.0	0	0	---	0.00	29.798 
07:45	72.0	72.0	72.0	88	68.2	0	0	---	0.00	29.787 
07:50	71.8	71.8	71.8	88	68.0	0	0	---	0.00	29.787 
07:55	71.6	71.6	71.6	89	68.2	0	0	---	0.00	29.787 
08:00	71.6	71.6	71.6	90	68.5	0	0	---	0.00	29.791 
08:05	71.6	71.6	71.6	91	68.8	0	0	---	0.01	29.791 
08:10	71.6	71.6	71.6	91	68.8	0	0	---	0.00	29.791 
08:15	71.6	71.6	71.6	91	68.8	0	0	---	0.00	29.797 
08:20	71.6	71.6	71.6	92	69.1	0	0	---	0.00	29.797 
08:25	71.6	71.6	71.6	92	69.1	0	0	---	0.00	29.797 
08:30	71.8	71.8	71.8	92	69.3	0	0	---	0.00	29.796 
08:35	71.8	71.8	71.8	92	69.3	0	0	---	0.01	29.796 
08:40	71.8	71.8	71.8	92	69.3	0	1	225	0.00	29.796 
08:45	71.6	71.6	71.6	92	69.1	0	2	225	0.00	29.787 
08:50	71.5	71.5	71.5	92	69.0	0	1	180	0.00	29.787 
08:55	71.3	71.3	71.3	92	68.8	0	2	180	0.01	29.787 
09:00	71.3	71.3	71.3	92	68.8	0	0	---	0.00	29.792 
09:05	71.3	71.3	71.3	93	69.2	0	0	---	0.00	29.792 
09:10	71.3	71.3	71.3	93	69.2	0	0	---	0.01	29.792 
09:15	71.5	71.5	71.5	93	69.4	0	1	180	0.00	29.796 
09:20	71.5	71.5	71.5	93	69.4	0	1	180	0.00	29.796 
09:25	71.5	71.5	71.5	93	69.4	0	1	180	0.01	29.796 
09:30	71.5	71.5	71.5	93	69.4	0	1	180	0.00	29.799 
09:35	71.3	71.3	71.3	93	69.2	0	1	180	0.01	29.799 
09:40	71.5	71.5	71.5	94	69.7	0	1	180	0.00	29.799 
09:45	71.6	71.6	71.6	94	69.8	0	1	180	0.01	29.794 
09:50	71.6	71.6	71.6	94	69.8	1	3	158	0.00	29.794 
09:55	71.6	71.6	71.6	94	69.8	0	1	158	0.00	29.794 
10:00	71.6	71.6	71.6	94	69.8	0	1	158	0.01	29.796 
10:05	71.6	71.6	71.6	94	69.8	0	1	158	0.00	29.796 
10:10	71.6	71.6	71.6	94	69.8	0	3	158	0.00	29.796 
10:15	71.6	71.6	71.6	94	69.8	0	2	158	0.01	29.794 
10:20	71.6	71.6	71.6	94	69.8	0	1	158	0.00	29.794 
10:25	71.6	71.6	71.6	95	70.1	0	1	158	0.00	29.794 
10:30	71.6	71.6	71.6	94	69.8	0	1	158	0.00	29.795 
10:35	71.6	71.6	71.6	94	69.8	0	1	158	0.00	29.795 
10:40	71.8	71.8	71.8	95	70.3	0	0	---	0.00	29.795 
10:45	71.8	71.8	71.8	95	70.3	0	0	---	0.00	29.794 
10:50	71.8	71.8	71.8	95	70.3	0	0	---	0.00	29.794 
10:55	71.8	71.8	71.8	95	70.3	0	0	---	0.00	29.794 
11:00	71.8	71.8	71.8	95	70.3	0	1	158	0.00	29.797 
11:05	71.8	71.8	71.8	95	70.3	0	1	158	0.00	29.797 
11:10	72.0	72.0	72.0	95	70.5	0	0	---	0.00	29.797 
11:15	72.0	72.0	72.0	95	70.5	0	1	158	0.00	29.800 
11:20	71.8	71.8	71.8	94	70.0	0	1	158	0.00	29.800 
11:25	71.8	71.8	71.8	95	70.3	0	0	---	0.00	29.800 
11:30	72.0	72.0	72.0	94	70.2	0	0	---	0.00	29.794 
11:35	72.0	72.0	72.0	94	70.2	0	1	158	0.00	29.794 
11:40	71.8	71.8	71.8	94	70.0	0	1	158	0.00	29.794 
11:45	71.8	71.8	71.8	94	70.0	0	2	90	0.00	29.794 
11:50	71.8	71.8	71.8	94	70.0	0	1	68	0.00	29.794 
11:55	72.0	72.0	72.0	94	70.2	0	0	---	0.00	29.794 
12:00	72.0	72.0	72.0	94	70.2	0	1	68	0.00	29.795 
12:05	72.0	72.0	72.0	94	70.2	0	3	90	0.00	29.795 
12:10	72.1	72.1	72.1	94	70.3	0	1	90	0.01	29.795 
12:15	72.1	72.1	72.1	94	70.3	0	3	90	0.00	29.793 
12:20	72.3	72.3	72.3	94	70.5	0	2	90	0.00	29.793 
12:25	72.5	72.5	72.5	94	70.7	0	3	202	0.00	29.793 
12:30	72.3	72.3	72.3	94	70.5	0	1	202	0.00	29.793 
12:35	72.3	72.3	72.3	94	70.5	0	0	---	0.00	29.793 
12:40	72.3	72.3	72.3	94	70.5	0	1	202	0.00	29.793 
12:45	72.3	72.3	72.3	94	70.5	0	1	202	0.00	29.792 
12:50	72.3	72.3	72.3	94	70.5	0	0	---	0.00	29.792 
12:55	72.3	72.3	72.3	94	70.5	0	0	---	0.00	29.792 
13:00	72.3	72.3	72.3	94	70.5	0	1	202	0.00	29.790 
13:05	72.3	72.3	72.3	94	70.5	0	0	---	0.00	29.790 
13:10	72.3	72.3	72.3	94	70.5	0	1	202	0.00	29.790 
13:15	72.1	72.1	72.1	94	70.3	0	1	202	0.00	29.792 
13:20	72.3	72.3	72.3	94	70.5	0	1	202	0.00	29.792 
13:25	72.3	72.3	72.3	94	70.5	0	1	202	0.00	29.792 
13:30	72.3	72.3	72.3	94	70.5	0	1	202	0.00	29.791 
13:35	72.3	72.3	72.3	94	70.5	0	1	202	0.00	29.791 
13:40	72.5	72.5	72.5	94	70.7	0	1	202	0.00	29.791 
13:45	72.5	72.5	72.5	94	70.7	0	1	202	0.00	29.789 
13:50	72.7	72.7	72.7	95	71.2	0	1	202	0.00	29.789 
13:55	73.0	73.0	73.0	94	71.2	0	2	202	0.00	29.789 
14:00	73.3	73.3	73.3	95	71.8	0	2	202	0.00	29.788 
14:05	73.5	73.5	73.5	94	71.7	0	2	202	0.00	29.788 
14:10	73.5	73.5	73.5	94	71.7	0	2	202	0.00	29.788 
14:15	73.5	73.5	73.5	94	71.7	0	3	202	0.00	29.788 
14:20	73.3	73.3	73.3	93	71.1	1	2	202	0.00	29.788 
14:25	73.3	73.3	73.3	93	71.1	0	2	202	0.00	29.788 
14:30	73.5	73.5	73.5	93	71.3	0	2	202	0.00	29.788 
14:35	73.7	73.7	73.7	93	71.5	0	2	202	0.00	29.788 
14:40	73.9	73.9	73.9	93	71.7	0	3	202	0.00	29.788 
14:45	74.0	74.0	74.0	92	71.5	0	2	202	0.00	29.783 
14:50	74.2	74.2	74.2	92	71.7	0	3	292	0.00	29.783 
14:55	74.2	74.2	74.2	91	71.4	1	3	292	0.00	29.783 
15:00	74.0	74.0	74.0	91	71.2	0	2	292	0.00	29.783 
15:05	74.0	74.0	74.0	91	71.2	0	2	315	0.01	29.783 
15:10	74.0	74.0	74.0	91	71.2	0	1	315	0.00	29.783 
15:15	74.0	74.0	74.0	90	70.9	1	3	315	0.00	29.782 
15:20	74.0	74.0	74.0	90	70.9	1	3	315	0.00	29.782 
15:25	74.2	74.2	74.2	90	71.1	0	1	315	0.00	29.782 
15:30	74.4	74.4	74.4	89	70.9	1	3	248	0.00	29.782 
15:35	74.2	74.2	74.2	88	70.4	2	4	270	0.00	29.782 
15:40	73.7	73.7	73.7	88	69.9	2	4	315	0.00	29.782 
15:45	73.0	73.0	73.0	89	69.6	2	4	292	0.00	29.787 
15:50	72.7	72.7	72.7	90	69.6	1	3	292	0.00	29.787 
15:55	72.3	72.3	72.3	91	69.5	0	2	292	0.00	29.787 
16:00	72.3	72.3	72.3	92	69.8	1	3	315	0.00	29.788 
16:05	72.1	72.1	72.1	92	69.6	1	3	315	0.00	29.788 
16:10	72.0	72.0	72.0	92	69.5	1	3	292	0.00	29.788 
16:15	72.1	72.1	72.1	93	70.0	1	4	292	0.00	29.787 
16:20	72.1	72.1	72.1	93	70.0	1	2	292	0.00	29.787 
16:25	72.3	72.3	72.3	93	70.2	0	1	292	0.00	29.787 
16:30	72.3	72.3	72.3	93	70.2	1	3	292	0.00	29.789 
16:35	72.5	72.5	72.5	93	70.4	0	2	292	0.00	29.789 
16:40	72.7	72.7	72.7	93	70.6	0	2	292	0.00	29.789 
16:45	72.7	72.7	72.7	93	70.6	0	1	292	0.00	29.788 
16:50	72.7	72.7	72.7	92	70.2	1	2	292	0.00	29.788 
16:55	72.7	72.7	72.7	92	70.2	0	1	292	0.00	29.788 
17:00	72.5	72.5	72.5	92	70.0	0	2	292	0.00	29.789 
17:05	72.8	72.8	72.8	92	70.3	0	1	292	0.00	29.789 
17:10	73.2	73.2	73.2	92	70.7	0	1	292	0.00	29.789 
17:15	73.3	73.3	73.3	91	70.5	1	3	292	0.00	29.792 
17:20	73.3	73.3	73.3	90	70.2	0	3	292	0.00	29.792 
17:25	73.5	73.5	73.5	90	70.4	0	3	292	0.00	29.792 
17:30	73.9	73.9	73.9	89	70.4	0	3	292	0.00	29.799 
17:35	74.0	74.0	74.0	88	70.2	0	2	292	0.00	29.799 
17:40	74.2	74.2	74.2	87	70.1	1	2	292	0.00	29.799 
17:45	74.4	74.4	74.4	86	69.9	0	1	292	0.00	29.801 
17:50	74.2	74.2	74.2	85	69.4	1	3	292	0.00	29.801 
17:55	74.4	74.4	74.4	85	69.6	1	2	292	0.00	29.801 
18:00	74.6	74.6	74.6	85	69.8	1	3	292	0.00	29.802 
18:05	74.7	74.7	74.7	84	69.5	0	2	292	0.00	29.802 
18:10	74.9	74.9	74.9	83	69.4	1	2	292	0.00	29.802 
18:15	75.1	75.1	75.3	83	69.6	1	3	292	0.00	29.804 
18:20	75.1	75.1	75.5	82	69.2	1	3	292	0.00	29.804 
18:25	75.1	75.1	75.6	81	68.9	1	3	292	0.00	29.804 
18:30	75.1	75.1	75.7	80	68.5	1	2	292	0.00	29.805 
18:35	75.4	75.4	76.1	80	68.8	0	3	292	0.00	29.805 
18:40	75.4	75.4	76.3	78	68.0	0	3	292	0.00	29.805 
18:45	75.4	75.4	76.4	77	67.7	0	2	292	0.00	29.807 
18:50	75.6	75.6	76.7	77	67.9	0	3	292	0.00	29.807 
18:55	75.8	75.8	77.0	77	68.1	1	3	292	0.00	29.807 
19:00	76.0	76.0	77.2	77	68.3	0	2	292	0.00	29.803 
19:05	76.1	76.1	77.4	77	68.3	0	1	292	0.00	29.803 
19:10	76.1	76.1	77.4	76	68.0	1	3	292	0.00	29.803 
19:15	76.0	76.0	77.4	75	67.5	1	3	292	0.00	29.808 
19:20	76.0	76.0	77.4	75	67.5	1	3	292	0.00	29.808 
19:25	76.0	76.0	77.4	75	67.5	0	2	292	0.00	29.808 
19:30	75.8	75.8	77.1	75	67.3	0	3	292	0.00	29.815 
19:35	75.8	75.8	77.1	75	67.3	0	2	315	0.00	29.815 
19:40	75.8	75.8	77.1	75	67.3	0	2	315	0.00	29.815 
19:45	75.6	75.6	77.0	74	66.7	1	4	338	0.00	29.821 
19:50	75.6	75.6	76.9	75	67.1	0	1	338	0.00	29.821 
19:55	75.4	75.4	76.6	75	66.9	0	1	338	0.00	29.821 
20:00	75.3	75.3	76.5	75	66.8	0	1	338	0.00	29.824 
20:05	75.1	75.1	76.2	76	67.0	0	1	338	0.00	29.824 
20:10	74.9	74.9	74.9	77	67.2	0	1	338	0.00	29.824 
20:15	74.6	74.6	74.6	77	66.9	0	0	---	0.00	29.836 
20:20	74.6	74.6	74.6	77	66.9	0	0	---	0.00	29.836 
20:25	74.4	74.4	74.4	78	67.1	0	0	---	0.00	29.836 
20:30	74.0	74.0	74.0	78	66.7	0	0	---	0.00	29.839 
20:35	73.9	73.9	73.9	79	67.0	0	0	---	0.00	29.839 
20:40	73.5	73.5	73.5	80	66.9	0	0	---	0.00	29.839 
20:45	73.3	73.3	73.3	81	67.1	0	0	---	0.00	29.841 
20:50	73.2	73.2	73.2	81	67.0	0	0	---	0.00	29.841 
20:55	73.2	73.2	73.2	82	67.4	0	0	---	0.00	29.841 
21:00	73.0	73.0	73.0	82	67.2	0	0	---	0.00	29.842 
21:05	73.0	73.0	73.0	82	67.2	0	0	---	0.00	29.842 
21:10	72.8	72.8	72.8	83	67.3	0	0	---	0.00	29.842 
21:15	72.7	72.7	72.7	83	67.2	0	0	---	0.00	29.845 
21:20	72.3	72.3	72.3	84	67.2	0	0	---	0.00	29.845 
21:25	72.3	72.3	72.3	84	67.2	0	0	---	0.00	29.845 
21:30	72.1	72.1	72.1	84	67.0	0	0	---	0.00	29.855 
21:35	72.0	72.0	72.0	85	67.2	0	0	---	0.00	29.855 
21:40	72.0	72.0	72.0	86	67.6	0	0	---	0.00	29.855 
21:45	71.8	71.8	71.8	86	67.4	0	0	---	0.00	29.857 
21:50	71.8	71.8	71.8	86	67.4	0	0	---	0.00	29.857 
21:55	71.6	71.6	71.6	86	67.2	0	0	---	0.00	29.857 
22:00	71.5	71.5	71.5	87	67.4	0	0	---	0.00	29.862 
22:05	71.3	71.3	71.3	87	67.2	0	0	---	0.00	29.862 
22:10	71.1	71.1	71.1	87	67.0	0	0	---	0.00	29.862 
22:15	70.9	70.9	70.9	88	67.2	0	0	---	0.00	29.867 
22:20	70.8	70.8	70.8	88	67.1	0	0	---	0.00	29.867 
22:25	70.8	70.8	70.8	89	67.4	0	0	---	0.00	29.867 
22:30	70.8	70.8	70.8	89	67.4	0	1	338	0.00	29.872 
22:35	70.9	70.9	70.9	89	67.5	0	1	338	0.00	29.872 
22:40	70.9	70.9	70.9	89	67.5	0	1	338	0.00	29.872 
22:45	70.9	70.9	70.9	89	67.5	0	1	338	0.00	29.873 
22:50	70.9	70.9	70.9	89	67.5	0	1	338	0.00	29.873 
22:55	70.9	70.9	70.9	90	67.8	0	1	338	0.00	29.873 
23:00	70.9	70.9	70.9	90	67.8	0	1	338	0.00	29.874 
23:05	70.9	70.9	70.9	90	67.8	0	1	338	0.00	29.874 
23:10	70.9	70.9	70.9	90	67.8	0	0	---	0.00	29.874 
23:15	70.9	70.9	70.9	90	67.8	0	1	338	0.00	29.878 
23:20	70.9	70.9	70.9	90	67.8	0	0	---	0.00	29.878 
23:25	70.9	70.9	70.9	90	67.8	0	1	338	0.00	29.878 
23:30	70.9	70.9	70.9	90	67.8	0	1	338	0.00	29.882 
23:35	70.9	70.9	70.9	90	67.8	0	1	338	0.00	29.882 
23:40	70.9	70.9	70.9	90	67.8	0	1	338	0.00	29.882 
23:45	70.9	70.9	70.9	90	67.8	0	1	338	0.00	29.886 
23:50	70.8	70.8	70.8	90	67.7	0	1	338	0.00	29.886 
23:55	70.8	70.8	70.8	90	67.7	0	0	---	0.00	29.886 

CoCoRaHS
IN-AL-39
A2 Web Hosting
Creative Commons License
GoDaddy
search engine by freefind advanced

loaded 2018-11-15 03:07:27 • last modified 2010-11-18 10:43:29
Privacy PolicyDisclaimer
• wx.awcolley.com is powered by PmWiki v.2002016 •
• all content (unless otherwise noted) © 2018 A W Colley